sensor_id;sensor_type;location;lat;lon;timestamp;temperature;humidity
3756;DHT22;1893;52.526;13.360;2024-01-15T00:02:12;2.00;99.90
3756;DHT22;1893;52.526;13.360;2024-01-15T00:04:39;1.90;99.90
3756;DHT22;1893;52.526;13.360;2024-01-15T00:07:09;1.90;99.90
3756;DHT22;1893;52.526;13.360;2024-01-15T00:09:35;1.80;99.90
3756;DHT22;1893;52.526;13.360;2024-01-15T00:12:01;1.80;99.90
3756;DHT22;1893;52.526;13.360;2024-01-15T00:14:27;1.80;99.90
3756;DHT22;1893;52.526;13.360;2024-01-15T00:16:53;1.80;99.90
3756;DHT22;1893;52.526;13.360;2024-01-15T00:19:21;1.80;99.90
3756;DHT22;1893;52.526;13.360;2024-01-15T00:21:47;1.80;99.90
3756;DHT22;1893;52.526;13.360;2024-01-15T00:24:13;1.80;99.90
3756;DHT22;1893;52.526;13.360;2024-01-15T00:26:39;1.90;99.90
3756;DHT22;1893;52.526;13.360;2024-01-15T00:29:07;1.80;99.90
3756;DHT22;1893;52.526;13.360;2024-01-15T00:31:33;1.90;99.90
3756;DHT22;1893;52.526;13.360;2024-01-15T00:33:58;1.90;99.90
3756;DHT22;1893;52.526;13.360;2024-01-15T00:36:24;1.90;99.90
3756;DHT22;1893;52.526;13.360;2024-01-15T00:38:50;1.80;99.90
3756;DHT22;1893;52.526;13.360;2024-01-15T00:41:16;1.90;99.90
3756;DHT22;1893;52.526;13.360;2024-01-15T00:43:42;1.90;99.90
3756;DHT22;1893;52.526;13.360;2024-01-15T00:46:08;1.90;99.90
3756;DHT22;1893;52.526;13.360;2024-01-15T00:48:33;1.90;99.90
3756;DHT22;1893;52.526;13.360;2024-01-15T00:50:59;1.90;99.90
3756;DHT22;1893;52.526;13.360;2024-01-15T00:53:25;2.10;99.90
3756;DHT22;1893;52.526;13.360;2024-01-15T00:55:51;2.00;99.90
3756;DHT22;1893;52.526;13.360;2024-01-15T00:58:16;2.00;99.90
3756;DHT22;1893;52.526;13.360;2024-01-15T01:00:42;2.10;99.90
3756;DHT22;1893;52.526;13.360;2024-01-15T01:03:08;1.90;99.90
3756;DHT22;1893;52.526;13.360;2024-01-15T01:05:34;1.90;99.90
3756;DHT22;1893;52.526;13.360;2024-01-15T01:08:00;1.80;99.90
3756;DHT22;1893;52.526;13.360;2024-01-15T01:10:26;1.80;99.90
3756;DHT22;1893;52.526;13.360;2024-01-15T01:12:52;1.80;99.90
3756;DHT22;1893;52.526;13.360;2024-01-15T01:15:18;1.60;99.90
3756;DHT22;1893;52.526;13.360;2024-01-15T01:17:43;1.60;99.90
3756;DHT22;1893;52.526;13.360;2024-01-15T01:20:09;1.60;99.90
3756;DHT22;1893;52.526;13.360;2024-01-15T01:22:36;1.50;99.90
3756;DHT22;1893;52.526;13.360;2024-01-15T01:25:02;1.50;99.90
3756;DHT22;1893;52.526;13.360;2024-01-15T01:27:28;1.50;99.90
3756;DHT22;1893;52.526;13.360;2024-01-15T01:29:54;1.50;99.90
3756;DHT22;1893;52.526;13.360;2024-01-15T01:32:19;1.50;99.90
3756;DHT22;1893;52.526;13.360;2024-01-15T01:34:45;1.50;99.90
3756;DHT22;1893;52.526;13.360;2024-01-15T01:37:11;1.40;99.90
3756;DHT22;1893;52.526;13.360;2024-01-15T01:39:41;1.50;99.90
3756;DHT22;1893;52.526;13.360;2024-01-15T01:42:07;1.40;99.90
3756;DHT22;1893;52.526;13.360;2024-01-15T01:44:33;1.40;99.90
3756;DHT22;1893;52.526;13.360;2024-01-15T01:46:59;1.30;99.90
3756;DHT22;1893;52.526;13.360;2024-01-15T01:49:26;1.20;99.90
3756;DHT22;1893;52.526;13.360;2024-01-15T01:51:53;1.20;99.90
3756;DHT22;1893;52.526;13.360;2024-01-15T01:54:20;1.20;99.90
3756;DHT22;1893;52.526;13.360;2024-01-15T01:56:47;1.20;99.90
3756;DHT22;1893;52.526;13.360;2024-01-15T01:59:13;1.20;99.90
3756;DHT22;1893;52.526;13.360;2024-01-15T02:01:39;1.30;99.90
3756;DHT22;1893;52.526;13.360;2024-01-15T02:04:06;1.50;99.90
3756;DHT22;1893;52.526;13.360;2024-01-15T02:06:31;1.30;99.90
3756;DHT22;1893;52.526;13.360;2024-01-15T02:08:57;1.30;99.90
3756;DHT22;1893;52.526;13.360;2024-01-15T02:11:23;1.30;99.90
3756;DHT22;1893;52.526;13.360;2024-01-15T02:13:49;1.30;99.90
3756;DHT22;1893;52.526;13.360;2024-01-15T02:16:15;1.40;99.90
3756;DHT22;1893;52.526;13.360;2024-01-15T02:18:45;1.30;99.90
3756;DHT22;1893;52.526;13.360;2024-01-15T02:21:11;1.30;99.90
3756;DHT22;1893;52.526;13.360;2024-01-15T02:23:37;1.30;99.90
3756;DHT22;1893;52.526;13.360;2024-01-15T02:26:04;1.50;99.90
3756;DHT22;1893;52.526;13.360;2024-01-15T02:28:30;1.40;99.90
3756;DHT22;1893;52.526;13.360;2024-01-15T02:30:57;1.40;99.90
3756;DHT22;1893;52.526;13.360;2024-01-15T02:33:23;1.40;99.90
3756;DHT22;1893;52.526;13.360;2024-01-15T02:35:48;1.60;99.90
3756;DHT22;1893;52.526;13.360;2024-01-15T02:38:17;1.60;99.90
3756;DHT22;1893;52.526;13.360;2024-01-15T02:40:46;1.40;99.90
3756;DHT22;1893;52.526;13.360;2024-01-15T02:43:12;1.40;99.90
3756;DHT22;1893;52.526;13.360;2024-01-15T02:45:39;1.40;99.90
3756;DHT22;1893;52.526;13.360;2024-01-15T02:48:04;1.40;99.90
3756;DHT22;1893;52.526;13.360;2024-01-15T02:50:30;1.40;99.90
3756;DHT22;1893;52.526;13.360;2024-01-15T02:52:56;1.40;99.90
3756;DHT22;1893;52.526;13.360;2024-01-15T02:55:21;1.40;99.90
3756;DHT22;1893;52.526;13.360;2024-01-15T02:57:47;1.60;99.90
3756;DHT22;1893;52.526;13.360;2024-01-15T03:00:13;1.40;99.90
3756;DHT22;1893;52.526;13.360;2024-01-15T03:02:39;1.50;99.90
3756;DHT22;1893;52.526;13.360;2024-01-15T03:05:06;1.50;99.90
3756;DHT22;1893;52.526;13.360;2024-01-15T03:07:33;1.50;99.90
3756;DHT22;1893;52.526;13.360;2024-01-15T03:09:59;1.50;99.90
3756;DHT22;1893;52.526;13.360;2024-01-15T03:12:24;1.50;99.90
3756;DHT22;1893;52.526;13.360;2024-01-15T03:14:50;1.50;99.90
3756;DHT22;1893;52.526;13.360;2024-01-15T03:17:16;1.50;99.90
3756;DHT22;1893;52.526;13.360;2024-01-15T03:19:41;1.60;99.90
3756;DHT22;1893;52.526;13.360;2024-01-15T03:22:07;1.60;99.90
3756;DHT22;1893;52.526;13.360;2024-01-15T03:24:34;1.60;99.90
3756;DHT22;1893;52.526;13.360;2024-01-15T03:27:00;1.60;99.90
3756;DHT22;1893;52.526;13.360;2024-01-15T03:29:26;1.60;99.90
3756;DHT22;1893;52.526;13.360;2024-01-15T03:31:52;1.60;99.90
3756;DHT22;1893;52.526;13.360;2024-01-15T03:34:18;1.60;99.90
3756;DHT22;1893;52.526;13.360;2024-01-15T03:36:43;1.60;99.90
3756;DHT22;1893;52.526;13.360;2024-01-15T03:39:09;1.60;99.90
3756;DHT22;1893;52.526;13.360;2024-01-15T03:41:34;1.60;99.90
3756;DHT22;1893;52.526;13.360;2024-01-15T03:44:00;1.60;99.90
3756;DHT22;1893;52.526;13.360;2024-01-15T03:46:26;1.60;99.90
3756;DHT22;1893;52.526;13.360;2024-01-15T03:48:52;1.60;99.90
3756;DHT22;1893;52.526;13.360;2024-01-15T03:51:18;1.60;99.90
3756;DHT22;1893;52.526;13.360;2024-01-15T03:53:44;1.60;99.90
3756;DHT22;1893;52.526;13.360;2024-01-15T03:56:09;1.60;99.90
3756;DHT22;1893;52.526;13.360;2024-01-15T03:58:35;1.60;99.90
3756;DHT22;1893;52.526;13.360;2024-01-15T04:01:01;1.60;99.90
3756;DHT22;1893;52.526;13.360;2024-01-15T04:03:26;1.60;99.90
3756;DHT22;1893;52.526;13.360;2024-01-15T04:05:52;1.70;99.90
3756;DHT22;1893;52.526;13.360;2024-01-15T04:08:17;1.60;99.90
3756;DHT22;1893;52.526;13.360;2024-01-15T04:10:43;1.60;99.90
3756;DHT22;1893;52.526;13.360;2024-01-15T04:13:09;1.80;99.90
3756;DHT22;1893;52.526;13.360;2024-01-15T04:15:34;1.60;99.90
3756;DHT22;1893;52.526;13.360;2024-01-15T04:18:00;1.60;99.90
3756;DHT22;1893;52.526;13.360;2024-01-15T04:20:26;1.70;99.90
3756;DHT22;1893;52.526;13.360;2024-01-15T04:22:52;1.60;99.90
3756;DHT22;1893;52.526;13.360;2024-01-15T04:25:18;1.60;99.90
3756;DHT22;1893;52.526;13.360;2024-01-15T04:27:43;1.60;99.90
3756;DHT22;1893;52.526;13.360;2024-01-15T04:30:09;1.70;99.90
3756;DHT22;1893;52.526;13.360;2024-01-15T04:32:35;1.70;99.90
3756;DHT22;1893;52.526;13.360;2024-01-15T04:35:01;1.80;99.90
3756;DHT22;1893;52.526;13.360;2024-01-15T04:37:27;1.70;99.90
3756;DHT22;1893;52.526;13.360;2024-01-15T04:39:52;1.80;99.90
3756;DHT22;1893;52.526;13.360;2024-01-15T04:42:21;1.70;99.90
3756;DHT22;1893;52.526;13.360;2024-01-15T04:44:46;1.90;99.90
3756;DHT22;1893;52.526;13.360;2024-01-15T04:47:12;1.90;99.90
3756;DHT22;1893;52.526;13.360;2024-01-15T04:49:38;1.80;99.90
3756;DHT22;1893;52.526;13.360;2024-01-15T04:52:04;1.90;99.90
3756;DHT22;1893;52.526;13.360;2024-01-15T04:54:29;1.80;99.90
3756;DHT22;1893;52.526;13.360;2024-01-15T04:56:55;1.80;99.90
3756;DHT22;1893;52.526;13.360;2024-01-15T04:59:21;1.70;99.90
3756;DHT22;1893;52.526;13.360;2024-01-15T05:01:46;1.80;99.90
3756;DHT22;1893;52.526;13.360;2024-01-15T05:04:12;1.80;99.90
3756;DHT22;1893;52.526;13.360;2024-01-15T05:06:38;1.90;99.90
3756;DHT22;1893;52.526;13.360;2024-01-15T05:09:04;1.80;99.90
3756;DHT22;1893;52.526;13.360;2024-01-15T05:11:30;1.90;99.90
3756;DHT22;1893;52.526;13.360;2024-01-15T05:13:55;1.90;99.90
3756;DHT22;1893;52.526;13.360;2024-01-15T05:16:21;1.90;99.90
3756;DHT22;1893;52.526;13.360;2024-01-15T05:18:46;1.90;99.90
3756;DHT22;1893;52.526;13.360;2024-01-15T05:21:12;1.90;99.90
3756;DHT22;1893;52.526;13.360;2024-01-15T05:23:38;1.90;99.90
3756;DHT22;1893;52.526;13.360;2024-01-15T05:26:03;1.80;99.90
3756;DHT22;1893;52.526;13.360;2024-01-15T05:28:29;1.80;99.90
3756;DHT22;1893;52.526;13.360;2024-01-15T05:30:55;1.90;99.90
3756;DHT22;1893;52.526;13.360;2024-01-15T05:33:23;2.00;99.90
3756;DHT22;1893;52.526;13.360;2024-01-15T05:35:49;1.90;99.90
3756;DHT22;1893;52.526;13.360;2024-01-15T05:38:16;1.90;99.90
3756;DHT22;1893;52.526;13.360;2024-01-15T05:40:42;1.90;99.90
3756;DHT22;1893;52.526;13.360;2024-01-15T05:43:07;2.00;99.90
3756;DHT22;1893;52.526;13.360;2024-01-15T05:45:35;2.00;99.90
3756;DHT22;1893;52.526;13.360;2024-01-15T05:48:03;2.00;99.90
3756;DHT22;1893;52.526;13.360;2024-01-15T05:50:29;2.00;99.90
3756;DHT22;1893;52.526;13.360;2024-01-15T05:52:56;2.00;99.90
3756;DHT22;1893;52.526;13.360;2024-01-15T05:55:22;2.00;99.90
3756;DHT22;1893;52.526;13.360;2024-01-15T05:57:47;1.90;99.90
3756;DHT22;1893;52.526;13.360;2024-01-15T06:00:13;1.80;99.90
3756;DHT22;1893;52.526;13.360;2024-01-15T06:02:39;1.70;99.90
3756;DHT22;1893;52.526;13.360;2024-01-15T06:05:05;1.70;99.90
3756;DHT22;1893;52.526;13.360;2024-01-15T06:07:32;1.70;99.90
3756;DHT22;1893;52.526;13.360;2024-01-15T06:09:57;1.80;99.90
3756;DHT22;1893;52.526;13.360;2024-01-15T06:12:23;1.80;99.90
3756;DHT22;1893;52.526;13.360;2024-01-15T06:14:48;1.90;99.90
3756;DHT22;1893;52.526;13.360;2024-01-15T06:17:14;1.90;99.90
3756;DHT22;1893;52.526;13.360;2024-01-15T06:19:40;2.00;99.90
3756;DHT22;1893;52.526;13.360;2024-01-15T06:22:05;1.90;99.90
3756;DHT22;1893;52.526;13.360;2024-01-15T06:24:31;2.00;99.90
3756;DHT22;1893;52.526;13.360;2024-01-15T06:26:56;2.10;99.90
3756;DHT22;1893;52.526;13.360;2024-01-15T06:29:25;2.00;99.90
3756;DHT22;1893;52.526;13.360;2024-01-15T06:31:51;2.00;99.90
3756;DHT22;1893;52.526;13.360;2024-01-15T06:34:16;2.00;99.90
3756;DHT22;1893;52.526;13.360;2024-01-15T06:36:42;2.00;99.90
3756;DHT22;1893;52.526;13.360;2024-01-15T06:39:08;2.00;99.90
3756;DHT22;1893;52.526;13.360;2024-01-15T06:41:33;2.00;99.90
3756;DHT22;1893;52.526;13.360;2024-01-15T06:43:59;2.00;99.90
3756;DHT22;1893;52.526;13.360;2024-01-15T06:46:24;2.00;99.90
3756;DHT22;1893;52.526;13.360;2024-01-15T06:48:50;2.00;99.90
3756;DHT22;1893;52.526;13.360;2024-01-15T06:51:16;2.00;99.90
3756;DHT22;1893;52.526;13.360;2024-01-15T06:53:42;2.00;99.90
3756;DHT22;1893;52.526;13.360;2024-01-15T06:56:08;2.00;99.90
3756;DHT22;1893;52.526;13.360;2024-01-15T06:58:33;2.00;99.90
3756;DHT22;1893;52.526;13.360;2024-01-15T07:00:59;2.00;99.90
3756;DHT22;1893;52.526;13.360;2024-01-15T07:03:25;2.00;99.90
3756;DHT22;1893;52.526;13.360;2024-01-15T07:05:50;2.00;99.90
3756;DHT22;1893;52.526;13.360;2024-01-15T07:08:16;2.10;99.90
3756;DHT22;1893;52.526;13.360;2024-01-15T07:10:42;2.10;99.90
3756;DHT22;1893;52.526;13.360;2024-01-15T07:13:08;2.10;99.90
3756;DHT22;1893;52.526;13.360;2024-01-15T07:15:33;2.10;99.90
3756;DHT22;1893;52.526;13.360;2024-01-15T07:17:59;2.20;99.90
3756;DHT22;1893;52.526;13.360;2024-01-15T07:20:24;2.20;99.90
3756;DHT22;1893;52.526;13.360;2024-01-15T07:22:50;2.30;99.90
3756;DHT22;1893;52.526;13.360;2024-01-15T07:25:16;2.30;99.90
3756;DHT22;1893;52.526;13.360;2024-01-15T07:27:42;2.30;99.90
3756;DHT22;1893;52.526;13.360;2024-01-15T07:30:11;2.30;99.90
3756;DHT22;1893;52.526;13.360;2024-01-15T07:32:36;2.40;99.90
3756;DHT22;1893;52.526;13.360;2024-01-15T07:35:02;2.40;99.90
3756;DHT22;1893;52.526;13.360;2024-01-15T07:37:28;2.40;99.90
3756;DHT22;1893;52.526;13.360;2024-01-15T07:39:54;2.50;99.90
3756;DHT22;1893;52.526;13.360;2024-01-15T07:42:19;2.40;99.90
3756;DHT22;1893;52.526;13.360;2024-01-15T07:44:45;2.40;99.90
3756;DHT22;1893;52.526;13.360;2024-01-15T07:47:11;2.40;99.90
3756;DHT22;1893;52.526;13.360;2024-01-15T07:49:36;2.40;99.90
3756;DHT22;1893;52.526;13.360;2024-01-15T07:52:02;2.40;99.90
3756;DHT22;1893;52.526;13.360;2024-01-15T07:54:28;2.40;99.90
3756;DHT22;1893;52.526;13.360;2024-01-15T07:56:59;2.40;99.90
3756;DHT22;1893;52.526;13.360;2024-01-15T07:59:25;2.30;99.90
3756;DHT22;1893;52.526;13.360;2024-01-15T08:01:51;2.30;99.90
3756;DHT22;1893;52.526;13.360;2024-01-15T08:04:17;2.40;99.90
3756;DHT22;1893;52.526;13.360;2024-01-15T08:06:43;2.40;99.90
3756;DHT22;1893;52.526;13.360;2024-01-15T08:09:08;2.40;99.90
3756;DHT22;1893;52.526;13.360;2024-01-15T08:11:35;2.40;99.90
3756;DHT22;1893;52.526;13.360;2024-01-15T08:14:01;2.50;99.90
3756;DHT22;1893;52.526;13.360;2024-01-15T08:16:26;2.40;99.90
3756;DHT22;1893;52.526;13.360;2024-01-15T08:18:55;2.40;99.90
3756;DHT22;1893;52.526;13.360;2024-01-15T08:21:21;2.40;99.90
3756;DHT22;1893;52.526;13.360;2024-01-15T08:23:47;2.40;99.90
3756;DHT22;1893;52.526;13.360;2024-01-15T08:26:13;2.40;99.90
3756;DHT22;1893;52.526;13.360;2024-01-15T08:28:44;2.50;99.90
3756;DHT22;1893;52.526;13.360;2024-01-15T08:31:10;2.40;99.90
3756;DHT22;1893;52.526;13.360;2024-01-15T08:33:36;2.50;99.90
3756;DHT22;1893;52.526;13.360;2024-01-15T08:36:01;2.40;99.90
3756;DHT22;1893;52.526;13.360;2024-01-15T08:38:27;2.40;99.90
3756;DHT22;1893;52.526;13.360;2024-01-15T08:40:53;2.40;99.90
3756;DHT22;1893;52.526;13.360;2024-01-15T08:43:22;2.40;99.90
3756;DHT22;1893;52.526;13.360;2024-01-15T08:45:47;2.40;99.90
3756;DHT22;1893;52.526;13.360;2024-01-15T08:48:13;2.40;99.90
3756;DHT22;1893;52.526;13.360;2024-01-15T08:50:39;2.50;99.90
3756;DHT22;1893;52.526;13.360;2024-01-15T08:53:04;2.50;99.90
3756;DHT22;1893;52.526;13.360;2024-01-15T08:55:30;2.50;99.90
3756;DHT22;1893;52.526;13.360;2024-01-15T08:57:56;2.50;99.90
3756;DHT22;1893;52.526;13.360;2024-01-15T09:00:21;2.50;99.90
3756;DHT22;1893;52.526;13.360;2024-01-15T09:02:47;2.50;99.90
3756;DHT22;1893;52.526;13.360;2024-01-15T09:05:13;2.50;99.90
3756;DHT22;1893;52.526;13.360;2024-01-15T09:07:38;2.60;99.90
3756;DHT22;1893;52.526;13.360;2024-01-15T09:10:04;2.40;99.90
3756;DHT22;1893;52.526;13.360;2024-01-15T09:12:30;2.50;99.90
3756;DHT22;1893;52.526;13.360;2024-01-15T09:14:55;2.50;99.90
3756;DHT22;1893;52.526;13.360;2024-01-15T09:17:21;2.50;99.90
3756;DHT22;1893;52.526;13.360;2024-01-15T09:19:49;2.40;99.90
3756;DHT22;1893;52.526;13.360;2024-01-15T09:22:15;2.40;99.90
3756;DHT22;1893;52.526;13.360;2024-01-15T09:24:46;2.50;99.90
3756;DHT22;1893;52.526;13.360;2024-01-15T09:27:12;2.50;99.90
3756;DHT22;1893;52.526;13.360;2024-01-15T09:29:37;2.70;99.90
3756;DHT22;1893;52.526;13.360;2024-01-15T09:32:06;2.70;99.90
3756;DHT22;1893;52.526;13.360;2024-01-15T09:34:33;2.60;99.90
3756;DHT22;1893;52.526;13.360;2024-01-15T09:36:58;2.60;99.90
3756;DHT22;1893;52.526;13.360;2024-01-15T09:39:27;2.60;99.90
3756;DHT22;1893;52.526;13.360;2024-01-15T09:41:54;2.60;99.90
3756;DHT22;1893;52.526;13.360;2024-01-15T09:44:20;2.80;99.90
3756;DHT22;1893;52.526;13.360;2024-01-15T09:46:47;2.80;99.90
3756;DHT22;1893;52.526;13.360;2024-01-15T09:49:16;2.90;99.90
3756;DHT22;1893;52.526;13.360;2024-01-15T09:51:42;2.80;99.90
3756;DHT22;1893;52.526;13.360;2024-01-15T09:54:08;2.80;99.90
3756;DHT22;1893;52.526;13.360;2024-01-15T09:56:34;2.70;99.90
3756;DHT22;1893;52.526;13.360;2024-01-15T09:59:01;2.70;99.90
3756;DHT22;1893;52.526;13.360;2024-01-15T10:01:28;2.70;99.90
3756;DHT22;1893;52.526;13.360;2024-01-15T10:03:54;2.80;99.90
3756;DHT22;1893;52.526;13.360;2024-01-15T10:06:21;2.80;99.90
3756;DHT22;1893;52.526;13.360;2024-01-15T10:08:48;2.80;99.90
3756;DHT22;1893;52.526;13.360;2024-01-15T10:11:14;2.90;99.90
3756;DHT22;1893;52.526;13.360;2024-01-15T10:13:40;2.90;99.90
3756;DHT22;1893;52.526;13.360;2024-01-15T10:16:06;2.90;99.90
3756;DHT22;1893;52.526;13.360;2024-01-15T10:18:32;2.80;99.90
3756;DHT22;1893;52.526;13.360;2024-01-15T10:20:58;2.80;99.90
3756;DHT22;1893;52.526;13.360;2024-01-15T10:23:24;2.80;99.90
3756;DHT22;1893;52.526;13.360;2024-01-15T10:25:50;2.90;99.90
3756;DHT22;1893;52.526;13.360;2024-01-15T10:28:19;2.90;99.90
3756;DHT22;1893;52.526;13.360;2024-01-15T10:30:45;3.00;99.90
3756;DHT22;1893;52.526;13.360;2024-01-15T10:33:10;3.00;99.90
3756;DHT22;1893;52.526;13.360;2024-01-15T10:35:38;3.00;99.90
3756;DHT22;1893;52.526;13.360;2024-01-15T10:38:05;3.00;99.90
3756;DHT22;1893;52.526;13.360;2024-01-15T10:40:31;3.10;99.90
3756;DHT22;1893;52.526;13.360;2024-01-15T10:42:57;3.00;99.90
3756;DHT22;1893;52.526;13.360;2024-01-15T10:45:24;2.90;99.90
3756;DHT22;1893;52.526;13.360;2024-01-15T10:47:50;2.90;99.90
3756;DHT22;1893;52.526;13.360;2024-01-15T10:50:15;3.00;99.90
3756;DHT22;1893;52.526;13.360;2024-01-15T10:52:42;3.00;99.90
3756;DHT22;1893;52.526;13.360;2024-01-15T10:55:09;3.00;99.90
3756;DHT22;1893;52.526;13.360;2024-01-15T10:57:38;3.00;99.90
3756;DHT22;1893;52.526;13.360;2024-01-15T11:00:05;3.00;99.90
3756;DHT22;1893;52.526;13.360;2024-01-15T11:02:36;3.00;99.90
3756;DHT22;1893;52.526;13.360;2024-01-15T11:05:03;3.10;99.90
3756;DHT22;1893;52.526;13.360;2024-01-15T11:07:30;3.10;99.90
3756;DHT22;1893;52.526;13.360;2024-01-15T11:09:56;3.20;99.90
3756;DHT22;1893;52.526;13.360;2024-01-15T11:12:24;3.30;99.90
3756;DHT22;1893;52.526;13.360;2024-01-15T11:14:50;3.20;99.90
3756;DHT22;1893;52.526;13.360;2024-01-15T11:17:17;3.10;99.90
3756;DHT22;1893;52.526;13.360;2024-01-15T11:19:50;3.10;99.90
3756;DHT22;1893;52.526;13.360;2024-01-15T11:25:19;2.90;99.90
3756;DHT22;1893;52.526;13.360;2024-01-15T11:27:47;2.90;99.90
3756;DHT22;1893;52.526;13.360;2024-01-15T11:30:13;2.90;99.90
3756;DHT22;1893;52.526;13.360;2024-01-15T11:32:39;2.90;99.90
3756;DHT22;1893;52.526;13.360;2024-01-15T11:35:12;2.80;99.90
3756;DHT22;1893;52.526;13.360;2024-01-15T11:40:21;2.70;99.90
3756;DHT22;1893;52.526;13.360;2024-01-15T11:42:47;2.70;99.90
3756;DHT22;1893;52.526;13.360;2024-01-15T11:45:18;2.70;99.90
3756;DHT22;1893;52.526;13.360;2024-01-15T11:50:33;2.60;99.90
3756;DHT22;1893;52.526;13.360;2024-01-15T11:53:01;2.30;99.90
3756;DHT22;1893;52.526;13.360;2024-01-15T11:55:29;2.20;99.90
3756;DHT22;1893;52.526;13.360;2024-01-15T11:57:57;2.10;99.90
3756;DHT22;1893;52.526;13.360;2024-01-15T12:00:24;1.90;99.90
3756;DHT22;1893;52.526;13.360;2024-01-15T12:02:50;2.00;99.90
3756;DHT22;1893;52.526;13.360;2024-01-15T12:05:20;2.10;99.90
3756;DHT22;1893;52.526;13.360;2024-01-15T12:07:50;2.10;99.90
3756;DHT22;1893;52.526;13.360;2024-01-15T12:10:20;2.20;99.90
3756;DHT22;1893;52.526;13.360;2024-01-15T12:15:25;2.20;99.90
3756;DHT22;1893;52.526;13.360;2024-01-15T12:17:51;2.20;99.90
3756;DHT22;1893;52.526;13.360;2024-01-15T12:20:18;2.20;99.90
3756;DHT22;1893;52.526;13.360;2024-01-15T12:22:44;2.20;99.90
3756;DHT22;1893;52.526;13.360;2024-01-15T12:25:10;2.20;99.90
3756;DHT22;1893;52.526;13.360;2024-01-15T12:27:41;2.20;99.90
3756;DHT22;1893;52.526;13.360;2024-01-15T12:30:07;2.20;99.90
3756;DHT22;1893;52.526;13.360;2024-01-15T12:32:35;2.20;99.90
3756;DHT22;1893;52.526;13.360;2024-01-15T12:35:01;2.20;99.90
3756;DHT22;1893;52.526;13.360;2024-01-15T12:37:27;2.40;99.90
3756;DHT22;1893;52.526;13.360;2024-01-15T12:39:54;2.20;99.90
3756;DHT22;1893;52.526;13.360;2024-01-15T12:42:23;2.20;99.90
3756;DHT22;1893;52.526;13.360;2024-01-15T12:44:48;2.20;99.90
3756;DHT22;1893;52.526;13.360;2024-01-15T12:47:15;2.00;99.90
3756;DHT22;1893;52.526;13.360;2024-01-15T12:49:46;1.90;99.90
3756;DHT22;1893;52.526;13.360;2024-01-15T12:52:11;1.80;99.90
3756;DHT22;1893;52.526;13.360;2024-01-15T12:54:37;1.80;99.90
3756;DHT22;1893;52.526;13.360;2024-01-15T12:57:03;1.80;99.90
3756;DHT22;1893;52.526;13.360;2024-01-15T12:59:28;1.80;99.90
3756;DHT22;1893;52.526;13.360;2024-01-15T13:01:55;1.80;99.90
3756;DHT22;1893;52.526;13.360;2024-01-15T13:04:24;1.90;99.90
3756;DHT22;1893;52.526;13.360;2024-01-15T13:06:50;2.00;99.90
3756;DHT22;1893;52.526;13.360;2024-01-15T13:09:17;1.90;99.90
3756;DHT22;1893;52.526;13.360;2024-01-15T13:11:46;1.90;99.90
3756;DHT22;1893;52.526;13.360;2024-01-15T13:14:12;1.90;99.90
3756;DHT22;1893;52.526;13.360;2024-01-15T13:16:41;1.90;99.90
3756;DHT22;1893;52.526;13.360;2024-01-15T13:19:08;2.10;99.90
3756;DHT22;1893;52.526;13.360;2024-01-15T13:21:34;2.00;99.90
3756;DHT22;1893;52.526;13.360;2024-01-15T13:24:00;2.00;99.90
3756;DHT22;1893;52.526;13.360;2024-01-15T13:26:25;2.00;99.90
3756;DHT22;1893;52.526;13.360;2024-01-15T13:28:52;2.00;99.90
3756;DHT22;1893;52.526;13.360;2024-01-15T13:31:18;2.10;99.90
3756;DHT22;1893;52.526;13.360;2024-01-15T13:33:44;2.10;99.90
3756;DHT22;1893;52.526;13.360;2024-01-15T13:36:10;2.10;99.90
3756;DHT22;1893;52.526;13.360;2024-01-15T13:38:38;2.00;99.90
3756;DHT22;1893;52.526;13.360;2024-01-15T13:41:04;2.10;99.90
3756;DHT22;1893;52.526;13.360;2024-01-15T13:43:31;2.10;99.90
3756;DHT22;1893;52.526;13.360;2024-01-15T13:45:57;1.90;99.90
3756;DHT22;1893;52.526;13.360;2024-01-15T13:48:23;2.00;99.90
3756;DHT22;1893;52.526;13.360;2024-01-15T13:50:48;2.00;99.90
3756;DHT22;1893;52.526;13.360;2024-01-15T13:53:16;2.00;99.90
3756;DHT22;1893;52.526;13.360;2024-01-15T13:55:41;2.00;99.90
3756;DHT22;1893;52.526;13.360;2024-01-15T13:58:07;2.00;99.90
3756;DHT22;1893;52.526;13.360;2024-01-15T14:00:33;2.10;99.90
3756;DHT22;1893;52.526;13.360;2024-01-15T14:02:59;2.10;99.90
3756;DHT22;1893;52.526;13.360;2024-01-15T14:05:24;2.10;99.90
3756;DHT22;1893;52.526;13.360;2024-01-15T14:07:50;2.10;99.90
3756;DHT22;1893;52.526;13.360;2024-01-15T14:10:16;2.10;99.90
3756;DHT22;1893;52.526;13.360;2024-01-15T14:12:41;2.10;99.90
3756;DHT22;1893;52.526;13.360;2024-01-15T14:15:07;2.10;99.90
3756;DHT22;1893;52.526;13.360;2024-01-15T14:17:33;2.10;99.90
3756;DHT22;1893;52.526;13.360;2024-01-15T14:19:59;2.20;99.90
3756;DHT22;1893;52.526;13.360;2024-01-15T14:22:24;2.20;99.90
3756;DHT22;1893;52.526;13.360;2024-01-15T14:24:50;2.10;99.90
3756;DHT22;1893;52.526;13.360;2024-01-15T14:27:16;2.10;99.90
3756;DHT22;1893;52.526;13.360;2024-01-15T14:29:42;2.10;99.90
3756;DHT22;1893;52.526;13.360;2024-01-15T14:32:08;2.10;99.90
3756;DHT22;1893;52.526;13.360;2024-01-15T14:34:33;2.10;99.90
3756;DHT22;1893;52.526;13.360;2024-01-15T14:37:01;2.10;99.90
3756;DHT22;1893;52.526;13.360;2024-01-15T14:39:27;2.10;99.90
3756;DHT22;1893;52.526;13.360;2024-01-15T14:41:52;2.10;99.90
3756;DHT22;1893;52.526;13.360;2024-01-15T14:44:18;2.10;99.90
3756;DHT22;1893;52.526;13.360;2024-01-15T14:46:44;2.10;99.90
3756;DHT22;1893;52.526;13.360;2024-01-15T14:49:09;2.10;99.90
3756;DHT22;1893;52.526;13.360;2024-01-15T14:51:35;2.00;99.90
3756;DHT22;1893;52.526;13.360;2024-01-15T14:54:00;2.00;99.90
3756;DHT22;1893;52.526;13.360;2024-01-15T14:56:29;2.00;99.90
3756;DHT22;1893;52.526;13.360;2024-01-15T14:58:55;2.00;99.90
3756;DHT22;1893;52.526;13.360;2024-01-15T15:01:20;2.10;99.90
3756;DHT22;1893;52.526;13.360;2024-01-15T15:03:48;1.90;99.90
3756;DHT22;1893;52.526;13.360;2024-01-15T15:06:14;1.90;99.90
3756;DHT22;1893;52.526;13.360;2024-01-15T15:08:39;1.90;99.90
3756;DHT22;1893;52.526;13.360;2024-01-15T15:11:06;1.90;99.90
3756;DHT22;1893;52.526;13.360;2024-01-15T15:13:31;1.90;99.90
3756;DHT22;1893;52.526;13.360;2024-01-15T15:16:00;1.90;99.90
3756;DHT22;1893;52.526;13.360;2024-01-15T15:18:26;2.00;99.90
3756;DHT22;1893;52.526;13.360;2024-01-15T15:20:51;1.90;99.90
3756;DHT22;1893;52.526;13.360;2024-01-15T15:23:18;1.80;99.90
3756;DHT22;1893;52.526;13.360;2024-01-15T15:25:44;1.80;99.90
3756;DHT22;1893;52.526;13.360;2024-01-15T15:28:18;1.80;99.90
3756;DHT22;1893;52.526;13.360;2024-01-15T15:30:44;1.80;99.90
3756;DHT22;1893;52.526;13.360;2024-01-15T15:33:09;1.80;99.90
3756;DHT22;1893;52.526;13.360;2024-01-15T15:35:35;1.80;99.90
3756;DHT22;1893;52.526;13.360;2024-01-15T15:38:01;1.70;99.90
3756;DHT22;1893;52.526;13.360;2024-01-15T15:40:26;1.60;99.90
3756;DHT22;1893;52.526;13.360;2024-01-15T15:42:52;1.60;99.90
3756;DHT22;1893;52.526;13.360;2024-01-15T15:45:18;1.50;99.90
3756;DHT22;1893;52.526;13.360;2024-01-15T15:47:43;1.50;99.90
3756;DHT22;1893;52.526;13.360;2024-01-15T15:50:09;1.40;99.90
3756;DHT22;1893;52.526;13.360;2024-01-15T15:52:35;1.40;99.90
3756;DHT22;1893;52.526;13.360;2024-01-15T15:55:01;1.40;99.90
3756;DHT22;1893;52.526;13.360;2024-01-15T15:57:28;1.40;99.90
3756;DHT22;1893;52.526;13.360;2024-01-15T15:59:54;1.40;99.90
3756;DHT22;1893;52.526;13.360;2024-01-15T16:02:20;1.40;99.90
3756;DHT22;1893;52.526;13.360;2024-01-15T16:04:46;1.50;99.90
3756;DHT22;1893;52.526;13.360;2024-01-15T16:07:12;1.50;99.90